sensor_id;sensor_type;location;lat;lon;timestamp;temperature;humidity
16178;DHT22;8195;51.220;9.746;2023-05-07T00:06:46;12.40;97.20
16178;DHT22;8195;51.220;9.746;2023-05-07T00:17:07;12.30;97.20
16178;DHT22;8195;51.220;9.746;2023-05-07T00:27:28;12.20;97.20
16178;DHT22;8195;51.220;9.746;2023-05-07T00:37:49;12.00;97.20
16178;DHT22;8195;51.220;9.746;2023-05-07T00:48:10;11.80;97.20
16178;DHT22;8195;51.220;9.746;2023-05-07T00:58:31;11.80;97.20
16178;DHT22;8195;51.220;9.746;2023-05-07T01:08:52;11.70;97.20
16178;DHT22;8195;51.220;9.746;2023-05-07T01:19:14;11.70;97.20
16178;DHT22;8195;51.220;9.746;2023-05-07T01:29:38;11.50;97.20
16178;DHT22;8195;51.220;9.746;2023-05-07T01:39:59;11.50;97.20
16178;DHT22;8195;51.220;9.746;2023-05-07T01:50:21;11.50;97.20
16178;DHT22;8195;51.220;9.746;2023-05-07T02:00:42;11.40;97.20
16178;DHT22;8195;51.220;9.746;2023-05-07T02:11:03;11.40;97.20
16178;DHT22;8195;51.220;9.746;2023-05-07T02:21:25;11.40;97.20
16178;DHT22;8195;51.220;9.746;2023-05-07T02:31:45;11.30;97.20
16178;DHT22;8195;51.220;9.746;2023-05-07T02:42:06;11.30;97.20
16178;DHT22;8195;51.220;9.746;2023-05-07T02:52:27;11.30;97.20
16178;DHT22;8195;51.220;9.746;2023-05-07T03:02:48;11.20;97.20
16178;DHT22;8195;51.220;9.746;2023-05-07T03:13:09;11.20;97.20
16178;DHT22;8195;51.220;9.746;2023-05-07T03:23:39;11.20;97.20
16178;DHT22;8195;51.220;9.746;2023-05-07T03:34:06;11.20;97.20
16178;DHT22;8195;51.220;9.746;2023-05-07T03:44:27;11.10;97.20
16178;DHT22;8195;51.220;9.746;2023-05-07T03:54:57;11.10;97.20
16178;DHT22;8195;51.220;9.746;2023-05-07T04:05:18;11.10;97.20
16178;DHT22;8195;51.220;9.746;2023-05-07T04:15:39;11.00;97.20
16178;DHT22;8195;51.220;9.746;2023-05-07T04:26:00;11.00;97.20
16178;DHT22;8195;51.220;9.746;2023-05-07T04:36:42;10.90;97.20
16178;DHT22;8195;51.220;9.746;2023-05-07T04:47:02;10.90;97.20
16178;DHT22;8195;51.220;9.746;2023-05-07T04:57:29;10.80;97.20
16178;DHT22;8195;51.220;9.746;2023-05-07T05:07:50;10.70;97.20
16178;DHT22;8195;51.220;9.746;2023-05-07T05:18:17;10.80;97.20
16178;DHT22;8195;51.220;9.746;2023-05-07T05:28:37;10.70;97.20
16178;DHT22;8195;51.220;9.746;2023-05-07T05:39:12;10.60;97.20
16178;DHT22;8195;51.220;9.746;2023-05-07T05:49:33;10.70;97.20
16178;DHT22;8195;51.220;9.746;2023-05-07T05:59:57;10.60;97.20
16178;DHT22;8195;51.220;9.746;2023-05-07T06:10:21;10.60;97.20
16178;DHT22;8195;51.220;9.746;2023-05-07T06:20:42;10.80;97.20
16178;DHT22;8195;51.220;9.746;2023-05-07T06:31:19;10.80;97.20
16178;DHT22;8195;51.220;9.746;2023-05-07T06:41:40;11.00;97.20
16178;DHT22;8195;51.220;9.746;2023-05-07T06:52:01;10.90;97.20
16178;DHT22;8195;51.220;9.746;2023-05-07T07:02:22;11.00;97.20
16178;DHT22;8195;51.220;9.746;2023-05-07T07:12:43;11.00;97.20
16178;DHT22;8195;51.220;9.746;2023-05-07T07:23:07;11.20;97.20
16178;DHT22;8195;51.220;9.746;2023-05-07T07:33:31;11.30;97.20
16178;DHT22;8195;51.220;9.746;2023-05-07T07:43:52;11.40;97.20
16178;DHT22;8195;51.220;9.746;2023-05-07T07:54:16;11.40;97.20
16178;DHT22;8195;51.220;9.746;2023-05-07T08:04:37;11.60;97.20
16178;DHT22;8195;51.220;9.746;2023-05-07T08:14:58;12.10;97.20
16178;DHT22;8195;51.220;9.746;2023-05-07T08:25:28;12.30;97.20
16178;DHT22;8195;51.220;9.746;2023-05-07T08:35:49;12.50;97.20
16178;DHT22;8195;51.220;9.746;2023-05-07T08:46:10;12.60;97.20
16178;DHT22;8195;51.220;9.746;2023-05-07T08:56:37;12.80;97.20
16178;DHT22;8195;51.220;9.746;2023-05-07T09:17:51;13.10;97.20
16178;DHT22;8195;51.220;9.746;2023-05-07T09:28:23;13.00;97.20
16178;DHT22;8195;51.220;9.746;2023-05-07T09:38:56;13.10;97.20
16178;DHT22;8195;51.220;9.746;2023-05-07T09:49:24;13.50;97.20
16178;DHT22;8195;51.220;9.746;2023-05-07T10:10:40;14.10;97.20
16178;DHT22;8195;51.220;9.746;2023-05-07T10:21:08;14.50;97.20
16178;DHT22;8195;51.220;9.746;2023-05-07T10:43:02;15.30;97.20
16178;DHT22;8195;51.220;9.746;2023-05-07T10:53:26;15.50;97.20
16178;DHT22;8195;51.220;9.746;2023-05-07T11:04:15;15.70;97.20
16178;DHT22;8195;51.220;9.746;2023-05-07T11:14:51;15.40;97.20
16178;DHT22;8195;51.220;9.746;2023-05-07T11:25:48;15.80;97.20
16178;DHT22;8195;51.220;9.746;2023-05-07T11:36:35;16.30;97.20
16178;DHT22;8195;51.220;9.746;2023-05-07T11:46:56;16.00;97.20
16178;DHT22;8195;51.220;9.746;2023-05-07T11:57:24;15.60;97.20
16178;DHT22;8195;51.220;9.746;2023-05-07T12:07:45;15.30;97.20
16178;DHT22;8195;51.220;9.746;2023-05-07T12:28:36;15.20;97.20
16178;DHT22;8195;51.220;9.746;2023-05-07T12:38:59;15.40;97.20
16178;DHT22;8195;51.220;9.746;2023-05-07T12:49:20;15.80;97.20
16178;DHT22;8195;51.220;9.746;2023-05-07T12:59:42;15.60;97.20
16178;DHT22;8195;51.220;9.746;2023-05-07T13:10:03;15.70;97.20
16178;DHT22;8195;51.220;9.746;2023-05-07T13:20:24;15.60;97.20
16178;DHT22;8195;51.220;9.746;2023-05-07T13:30:46;15.60;97.20
16178;DHT22;8195;51.220;9.746;2023-05-07T13:41:07;15.60;97.20
16178;DHT22;8195;51.220;9.746;2023-05-07T13:51:28;15.60;97.20
16178;DHT22;8195;51.220;9.746;2023-05-07T14:01:49;15.50;97.20
16178;DHT22;8195;51.220;9.746;2023-05-07T14:12:10;15.70;97.20
16178;DHT22;8195;51.220;9.746;2023-05-07T14:22:31;15.50;97.20
16178;DHT22;8195;51.220;9.746;2023-05-07T14:32:52;15.50;97.20
16178;DHT22;8195;51.220;9.746;2023-05-07T14:43:26;15.30;97.20
16178;DHT22;8195;51.220;9.746;2023-05-07T14:53:46;15.30;97.20
16178;DHT22;8195;51.220;9.746;2023-05-07T15:04:19;15.10;97.20
16178;DHT22;8195;51.220;9.746;2023-05-07T15:14:58;15.10;97.20
16178;DHT22;8195;51.220;9.746;2023-05-07T15:25:25;15.00;97.20
16178;DHT22;8195;51.220;9.746;2023-05-07T15:35:51;14.70;97.20
16178;DHT22;8195;51.220;9.746;2023-05-07T15:46:58;14.50;97.20
16178;DHT22;8195;51.220;9.746;2023-05-07T15:57:24;14.40;97.20
16178;DHT22;8195;51.220;9.746;2023-05-07T16:07:45;14.20;97.20
16178;DHT22;8195;51.220;9.746;2023-05-07T16:18:13;13.90;97.20
16178;DHT22;8195;51.220;9.746;2023-05-07T16:29:08;13.90;97.20
16178;DHT22;8195;51.220;9.746;2023-05-07T16:39:41;13.80;97.20
16178;DHT22;8195;51.220;9.746;2023-05-07T16:50:11;13.70;97.20
16178;DHT22;8195;51.220;9.746;2023-05-07T17:00:32;13.60;97.20
16178;DHT22;8195;51.220;9.746;2023-05-07T17:10:56;13.40;97.20
16178;DHT22;8195;51.220;9.746;2023-05-07T17:21:17;13.20;97.20
16178;DHT22;8195;51.220;9.746;2023-05-07T17:31:44;13.00;97.20
16178;DHT22;8195;51.220;9.746;2023-05-07T17:42:05;12.90;97.20
16178;DHT22;8195;51.220;9.746;2023-05-07T17:52:26;12.60;97.20
16178;DHT22;8195;51.220;9.746;2023-05-07T18:02:47;12.50;97.20
16178;DHT22;8195;51.220;9.746;2023-05-07T18:13:11;12.20;97.20
16178;DHT22;8195;51.220;9.746;2023-05-07T18:23:35;12.10;97.20
16178;DHT22;8195;51.220;9.746;2023-05-07T18:34:08;11.80;97.20
16178;DHT22;8195;51.220;9.746;2023-05-07T18:44:42;11.60;97.20
16178;DHT22;8195;51.220;9.746;2023-05-07T18:55:11;11.40;97.20
16178;DHT22;8195;51.220;9.746;2023-05-07T19:05:32;11.10;97.20
16178;DHT22;8195;51.220;9.746;2023-05-07T19:15:53;10.90;97.20
16178;DHT22;8195;51.220;9.746;2023-05-07T19:26:15;10.70;97.20
16178;DHT22;8195;51.220;9.746;2023-05-07T19:36:36;10.50;97.20
16178;DHT22;8195;51.220;9.746;2023-05-07T19:47:04;10.40;97.20
16178;DHT22;8195;51.220;9.746;2023-05-07T19:57:25;10.40;97.20
16178;DHT22;8195;51.220;9.746;2023-05-07T20:07:46;10.40;97.20
16178;DHT22;8195;51.220;9.746;2023-05-07T20:18:07;10.30;97.20
16178;DHT22;8195;51.220;9.746;2023-05-07T20:28:58;10.20;97.20
16178;DHT22;8195;51.220;9.746;2023-05-07T20:39:19;10.30;97.20
16178;DHT22;8195;51.220;9.746;2023-05-07T20:49:40;10.20;97.20
16178;DHT22;8195;51.220;9.746;2023-05-07T21:00:07;10.20;97.20
16178;DHT22;8195;51.220;9.746;2023-05-07T21:10:31;10.20;97.20
16178;DHT22;8195;51.220;9.746;2023-05-07T21:21:20;10.20;97.20
16178;DHT22;8195;51.220;9.746;2023-05-07T21:31:41;10.20;97.20
16178;DHT22;8195;51.220;9.746;2023-05-07T21:42:11;10.10;97.20
16178;DHT22;8195;51.220;9.746;2023-05-07T22:03:16;10.00;97.20
16178;DHT22;8195;51.220;9.746;2023-05-07T22:13:37;10.00;97.20
16178;DHT22;8195;51.220;9.746;2023-05-07T22:23:58;10.10;97.20
16178;DHT22;8195;51.220;9.746;2023-05-07T22:34:19;10.00;97.20
16178;DHT22;8195;51.220;9.746;2023-05-07T22:44:43;9.90;97.20
16178;DHT22;8195;51.220;9.746;2023-05-07T22:55:05;9.80;97.20
16178;DHT22;8195;51.220;9.746;2023-05-07T23:05:35;9.70;97.20
16178;DHT22;8195;51.220;9.746;2023-05-07T23:15:56;9.70;97.20
16178;DHT22;8195;51.220;9.746;2023-05-07T23:26:20;9.60;97.20
16178;DHT22;8195;51.220;9.746;2023-05-07T23:36:56;9.60;97.20
16178;DHT22;8195;51.220;9.746;2023-05-07T23:47:47;9.50;97.20
16178;DHT22;8195;51.220;9.746;2023-05-07T23:58:13;9.50;97.20
